sensor_id;sensor_type;location;lat;lon;timestamp;P1;durP1;ratioP1;P2;durP2;ratioP2
20095;SDS011;10207;50.942;6.900;2023-08-31T00:00:10;8.60;;;3.53;;
20095;SDS011;10207;50.942;6.900;2023-08-31T00:02:38;8.95;;;3.20;;
20095;SDS011;10207;50.942;6.900;2023-08-31T00:05:05;8.55;;;2.72;;
20095;SDS011;10207;50.942;6.900;2023-08-31T00:07:31;8.15;;;3.08;;
20095;SDS011;10207;50.942;6.900;2023-08-31T00:09:57;5.13;;;2.90;;
20095;SDS011;10207;50.942;6.900;2023-08-31T00:12:24;7.00;;;2.92;;
20095;SDS011;10207;50.942;6.900;2023-08-31T00:14:50;4.78;;;3.20;;
20095;SDS011;10207;50.942;6.900;2023-08-31T00:17:16;10.15;;;3.35;;
20095;SDS011;10207;50.942;6.900;2023-08-31T00:19:43;6.80;;;3.05;;
20095;SDS011;10207;50.942;6.900;2023-08-31T00:22:09;8.73;;;3.42;;
20095;SDS011;10207;50.942;6.900;2023-08-31T00:24:35;6.18;;;3.83;;
20095;SDS011;10207;50.942;6.900;2023-08-31T00:27:03;10.50;;;3.58;;
20095;SDS011;10207;50.942;6.900;2023-08-31T00:29:29;9.95;;;3.40;;
20095;SDS011;10207;50.942;6.900;2023-08-31T00:31:58;9.40;;;3.90;;
20095;SDS011;10207;50.942;6.900;2023-08-31T00:34:25;11.30;;;3.45;;
20095;SDS011;10207;50.942;6.900;2023-08-31T00:36:51;6.88;;;3.38;;
20095;SDS011;10207;50.942;6.900;2023-08-31T00:39:17;10.85;;;3.63;;
20095;SDS011;10207;50.942;6.900;2023-08-31T00:41:46;7.82;;;3.83;;
20095;SDS011;10207;50.942;6.900;2023-08-31T00:44:12;6.70;;;4.30;;
20095;SDS011;10207;50.942;6.900;2023-08-31T00:46:40;10.88;;;3.50;;
20095;SDS011;10207;50.942;6.900;2023-08-31T00:49:06;11.70;;;4.15;;
20095;SDS011;10207;50.942;6.900;2023-08-31T00:51:32;9.88;;;4.38;;
20095;SDS011;10207;50.942;6.900;2023-08-31T00:53:58;6.32;;;4.15;;
20095;SDS011;10207;50.942;6.900;2023-08-31T00:56:26;13.70;;;4.15;;
20095;SDS011;10207;50.942;6.900;2023-08-31T00:58:52;6.30;;;4.03;;
20095;SDS011;10207;50.942;6.900;2023-08-31T01:11:31;8.38;;;4.35;;
20095;SDS011;10207;50.942;6.900;2023-08-31T01:14:01;9.05;;;4.63;;
20095;SDS011;10207;50.942;6.900;2023-08-31T01:16:29;10.55;;;3.90;;
20095;SDS011;10207;50.942;6.900;2023-08-31T01:18:55;9.13;;;4.35;;
20095;SDS011;10207;50.942;6.900;2023-08-31T01:23:52;10.10;;;4.30;;
20095;SDS011;10207;50.942;6.900;2023-08-31T01:26:19;10.13;;;4.28;;
20095;SDS011;10207;50.942;6.900;2023-08-31T01:28:46;8.75;;;4.15;;
20095;SDS011;10207;50.942;6.900;2023-08-31T01:31:14;11.82;;;5.30;;
20095;SDS011;10207;50.942;6.900;2023-08-31T01:33:41;12.73;;;5.00;;
20095;SDS011;10207;50.942;6.900;2023-08-31T01:36:18;8.63;;;4.68;;
20095;SDS011;10207;50.942;6.900;2023-08-31T01:38:47;9.70;;;4.28;;
20095;SDS011;10207;50.942;6.900;2023-08-31T01:41:16;9.02;;;5.32;;
20095;SDS011;10207;50.942;6.900;2023-08-31T01:43:43;12.75;;;4.93;;
20095;SDS011;10207;50.942;6.900;2023-08-31T01:46:10;14.02;;;5.60;;
20095;SDS011;10207;50.942;6.900;2023-08-31T01:48:39;12.88;;;5.80;;
20095;SDS011;10207;50.942;6.900;2023-08-31T01:51:09;13.05;;;5.57;;
20095;SDS011;10207;50.942;6.900;2023-08-31T01:53:35;10.15;;;5.07;;
20095;SDS011;10207;50.942;6.900;2023-08-31T01:56:02;10.27;;;5.28;;
20095;SDS011;10207;50.942;6.900;2023-08-31T01:58:28;12.55;;;5.57;;
20095;SDS011;10207;50.942;6.900;2023-08-31T02:00:54;14.68;;;5.20;;
20095;SDS011;10207;50.942;6.900;2023-08-31T02:03:20;11.27;;;5.47;;
20095;SDS011;10207;50.942;6.900;2023-08-31T02:05:46;11.02;;;6.10;;
20095;SDS011;10207;50.942;6.900;2023-08-31T02:08:14;10.75;;;5.85;;
20095;SDS011;10207;50.942;6.900;2023-08-31T02:10:44;14.15;;;6.63;;
20095;SDS011;10207;50.942;6.900;2023-08-31T02:13:10;12.05;;;6.43;;
20095;SDS011;10207;50.942;6.900;2023-08-31T02:15:39;12.07;;;6.70;;
20095;SDS011;10207;50.942;6.900;2023-08-31T02:18:05;11.70;;;6.28;;
20095;SDS011;10207;50.942;6.900;2023-08-31T02:20:31;10.65;;;6.30;;
20095;SDS011;10207;50.942;6.900;2023-08-31T02:22:57;10.77;;;6.72;;
20095;SDS011;10207;50.942;6.900;2023-08-31T02:25:23;13.23;;;5.80;;
20095;SDS011;10207;50.942;6.900;2023-08-31T02:27:49;13.80;;;6.25;;
20095;SDS011;10207;50.942;6.900;2023-08-31T02:30:15;13.75;;;6.40;;
20095;SDS011;10207;50.942;6.900;2023-08-31T02:32:41;20.20;;;6.47;;
20095;SDS011;10207;50.942;6.900;2023-08-31T02:35:07;14.18;;;6.45;;
20095;SDS011;10207;50.942;6.900;2023-08-31T02:37:33;12.25;;;5.70;;
20095;SDS011;10207;50.942;6.900;2023-08-31T02:39:59;11.20;;;6.03;;
20095;SDS011;10207;50.942;6.900;2023-08-31T02:42:25;9.30;;;5.57;;
20095;SDS011;10207;50.942;6.900;2023-08-31T02:44:52;12.30;;;5.68;;
20095;SDS011;10207;50.942;6.900;2023-08-31T02:47:19;10.20;;;5.28;;
20095;SDS011;10207;50.942;6.900;2023-08-31T02:49:45;11.13;;;5.65;;
20095;SDS011;10207;50.942;6.900;2023-08-31T02:52:11;9.02;;;5.32;;
20095;SDS011;10207;50.942;6.900;2023-08-31T02:54:37;10.10;;;5.30;;
20095;SDS011;10207;50.942;6.900;2023-08-31T02:57:03;9.90;;;5.90;;
20095;SDS011;10207;50.942;6.900;2023-08-31T02:59:29;11.00;;;5.57;;
20095;SDS011;10207;50.942;6.900;2023-08-31T03:01:55;12.48;;;5.40;;
20095;SDS011;10207;50.942;6.900;2023-08-31T03:04:21;14.07;;;5.22;;
20095;SDS011;10207;50.942;6.900;2023-08-31T03:06:47;9.88;;;6.30;;
20095;SDS011;10207;50.942;6.900;2023-08-31T03:09:13;11.38;;;5.35;;
20095;SDS011;10207;50.942;6.900;2023-08-31T03:11:39;13.30;;;5.65;;
20095;SDS011;10207;50.942;6.900;2023-08-31T03:14:05;8.68;;;5.00;;
20095;SDS011;10207;50.942;6.900;2023-08-31T03:16:31;7.35;;;5.07;;
20095;SDS011;10207;50.942;6.900;2023-08-31T03:18:56;9.10;;;5.07;;
20095;SDS011;10207;50.942;6.900;2023-08-31T03:21:23;8.88;;;5.10;;
20095;SDS011;10207;50.942;6.900;2023-08-31T03:23:49;15.80;;;4.95;;
20095;SDS011;10207;50.942;6.900;2023-08-31T03:26:15;8.70;;;5.07;;
20095;SDS011;10207;50.942;6.900;2023-08-31T03:28:41;6.70;;;5.10;;
20095;SDS011;10207;50.942;6.900;2023-08-31T03:31:07;8.40;;;5.38;;
20095;SDS011;10207;50.942;6.900;2023-08-31T03:33:33;12.02;;;5.43;;
20095;SDS011;10207;50.942;6.900;2023-08-31T03:36:00;10.85;;;5.13;;
20095;SDS011;10207;50.942;6.900;2023-08-31T03:38:26;6.88;;;4.63;;
20095;SDS011;10207;50.942;6.900;2023-08-31T03:40:55;5.43;;;3.80;;
20095;SDS011;10207;50.942;6.900;2023-08-31T03:43:21;9.32;;;4.47;;
20095;SDS011;10207;50.942;6.900;2023-08-31T03:45:47;6.40;;;4.10;;
20095;SDS011;10207;50.942;6.900;2023-08-31T03:48:13;5.65;;;3.88;;
20095;SDS011;10207;50.942;6.900;2023-08-31T03:50:40;10.05;;;5.13;;
20095;SDS011;10207;50.942;6.900;2023-08-31T03:53:05;8.30;;;3.88;;
20095;SDS011;10207;50.942;6.900;2023-08-31T03:55:31;7.72;;;3.67;;
20095;SDS011;10207;50.942;6.900;2023-08-31T03:57:57;6.50;;;4.07;;
20095;SDS011;10207;50.942;6.900;2023-08-31T04:00:24;14.25;;;4.78;;
20095;SDS011;10207;50.942;6.900;2023-08-31T04:02:49;8.98;;;3.85;;
20095;SDS011;10207;50.942;6.900;2023-08-31T04:05:20;6.80;;;3.75;;
20095;SDS011;10207;50.942;6.900;2023-08-31T04:07:46;6.82;;;3.50;;
20095;SDS011;10207;50.942;6.900;2023-08-31T04:10:12;6.78;;;3.40;;
20095;SDS011;10207;50.942;6.900;2023-08-31T04:12:38;7.63;;;3.90;;
20095;SDS011;10207;50.942;6.900;2023-08-31T04:15:05;7.93;;;3.67;;
20095;SDS011;10207;50.942;6.900;2023-08-31T04:17:31;9.98;;;4.38;;
20095;SDS011;10207;50.942;6.900;2023-08-31T04:19:57;10.05;;;4.80;;
20095;SDS011;10207;50.942;6.900;2023-08-31T04:22:23;7.32;;;4.72;;
20095;SDS011;10207;50.942;6.900;2023-08-31T04:24:49;7.97;;;4.10;;
20095;SDS011;10207;50.942;6.900;2023-08-31T04:27:15;10.85;;;4.43;;
20095;SDS011;10207;50.942;6.900;2023-08-31T04:29:41;8.50;;;5.50;;
20095;SDS011;10207;50.942;6.900;2023-08-31T04:32:06;8.73;;;5.07;;
20095;SDS011;10207;50.942;6.900;2023-08-31T04:34:32;14.48;;;4.65;;
20095;SDS011;10207;50.942;6.900;2023-08-31T04:36:58;11.93;;;5.43;;
20095;SDS011;10207;50.942;6.900;2023-08-31T04:39:24;11.57;;;5.72;;
20095;SDS011;10207;50.942;6.900;2023-08-31T04:41:51;9.85;;;5.15;;
20095;SDS011;10207;50.942;6.900;2023-08-31T04:44:17;12.60;;;5.25;;
20095;SDS011;10207;50.942;6.900;2023-08-31T04:46:43;10.52;;;5.32;;
20095;SDS011;10207;50.942;6.900;2023-08-31T04:49:09;9.55;;;5.20;;
20095;SDS011;10207;50.942;6.900;2023-08-31T04:51:35;6.88;;;5.30;;
20095;SDS011;10207;50.942;6.900;2023-08-31T04:54:02;10.07;;;5.32;;
20095;SDS011;10207;50.942;6.900;2023-08-31T04:56:30;9.02;;;6.18;;
20095;SDS011;10207;50.942;6.900;2023-08-31T04:58:56;9.70;;;5.70;;
20095;SDS011;10207;50.942;6.900;2023-08-31T05:01:21;7.93;;;5.93;;
20095;SDS011;10207;50.942;6.900;2023-08-31T05:03:47;10.70;;;5.30;;
20095;SDS011;10207;50.942;6.900;2023-08-31T05:06:13;11.27;;;5.47;;
20095;SDS011;10207;50.942;6.900;2023-08-31T05:08:39;11.80;;;5.93;;
20095;SDS011;10207;50.942;6.900;2023-08-31T05:11:05;8.57;;;5.00;;
20095;SDS011;10207;50.942;6.900;2023-08-31T05:13:31;9.25;;;6.25;;
20095;SDS011;10207;50.942;6.900;2023-08-31T05:15:57;9.05;;;5.72;;
20095;SDS011;10207;50.942;6.900;2023-08-31T05:18:22;8.70;;;5.05;;
20095;SDS011;10207;50.942;6.900;2023-08-31T05:20:48;12.63;;;6.07;;
20095;SDS011;10207;50.942;6.900;2023-08-31T05:23:14;9.27;;;5.38;;
20095;SDS011;10207;50.942;6.900;2023-08-31T05:25:44;8.23;;;5.72;;
20095;SDS011;10207;50.942;6.900;2023-08-31T05:28:10;10.00;;;6.47;;
20095;SDS011;10207;50.942;6.900;2023-08-31T05:30:36;14.60;;;6.15;;
20095;SDS011;10207;50.942;6.900;2023-08-31T05:33:02;11.10;;;5.68;;
20095;SDS011;10207;50.942;6.900;2023-08-31T05:35:29;9.45;;;5.65;;
20095;SDS011;10207;50.942;6.900;2023-08-31T05:37:55;9.77;;;5.50;;
20095;SDS011;10207;50.942;6.900;2023-08-31T05:40:21;13.70;;;4.90;;
20095;SDS011;10207;50.942;6.900;2023-08-31T05:42:47;15.02;;;6.05;;
20095;SDS011;10207;50.942;6.900;2023-08-31T05:45:13;8.07;;;4.28;;
20095;SDS011;10207;50.942;6.900;2023-08-31T05:47:40;9.45;;;4.30;;
20095;SDS011;10207;50.942;6.900;2023-08-31T05:50:06;7.60;;;4.15;;
20095;SDS011;10207;50.942;6.900;2023-08-31T05:52:33;10.18;;;3.70;;
20095;SDS011;10207;50.942;6.900;2023-08-31T05:54:59;5.78;;;3.53;;
20095;SDS011;10207;50.942;6.900;2023-08-31T05:57:25;4.38;;;3.10;;
20095;SDS011;10207;50.942;6.900;2023-08-31T05:59:53;6.10;;;3.45;;
20095;SDS011;10207;50.942;6.900;2023-08-31T06:02:19;4.45;;;2.90;;
20095;SDS011;10207;50.942;6.900;2023-08-31T06:04:45;5.00;;;3.00;;
20095;SDS011;10207;50.942;6.900;2023-08-31T06:07:11;5.55;;;2.42;;
20095;SDS011;10207;50.942;6.900;2023-08-31T06:09:37;5.50;;;2.83;;
20095;SDS011;10207;50.942;6.900;2023-08-31T06:12:04;5.60;;;2.80;;
20095;SDS011;10207;50.942;6.900;2023-08-31T06:14:30;7.10;;;2.15;;
20095;SDS011;10207;50.942;6.900;2023-08-31T06:16:56;6.65;;;2.20;;
20095;SDS011;10207;50.942;6.900;2023-08-31T06:19:22;6.70;;;2.15;;
20095;SDS011;10207;50.942;6.900;2023-08-31T06:21:48;3.42;;;2.53;;
20095;SDS011;10207;50.942;6.900;2023-08-31T06:24:14;5.97;;;2.00;;
20095;SDS011;10207;50.942;6.900;2023-08-31T06:26:40;9.98;;;2.00;;
20095;SDS011;10207;50.942;6.900;2023-08-31T06:29:06;9.82;;;2.63;;
20095;SDS011;10207;50.942;6.900;2023-08-31T06:31:35;7.75;;;3.10;;
20095;SDS011;10207;50.942;6.900;2023-08-31T06:34:01;4.88;;;1.80;;
20095;SDS011;10207;50.942;6.900;2023-08-31T06:36:26;6.57;;;1.92;;
20095;SDS011;10207;50.942;6.900;2023-08-31T06:38:52;4.50;;;1.63;;
20095;SDS011;10207;50.942;6.900;2023-08-31T06:41:18;3.67;;;1.58;;
20095;SDS011;10207;50.942;6.900;2023-08-31T06:43:44;4.93;;;1.75;;
20095;SDS011;10207;50.942;6.900;2023-08-31T06:46:11;3.78;;;1.30;;
20095;SDS011;10207;50.942;6.900;2023-08-31T06:48:37;6.03;;;1.67;;
20095;SDS011;10207;50.942;6.900;2023-08-31T06:51:03;5.93;;;1.20;;
20095;SDS011;10207;50.942;6.900;2023-08-31T06:53:29;7.38;;;1.88;;
20095;SDS011;10207;50.942;6.900;2023-08-31T06:55:57;6.07;;;1.80;;
20095;SDS011;10207;50.942;6.900;2023-08-31T06:58:24;3.30;;;1.50;;
20095;SDS011;10207;50.942;6.900;2023-08-31T07:00:49;3.72;;;1.35;;
20095;SDS011;10207;50.942;6.900;2023-08-31T07:03:15;7.20;;;2.13;;
20095;SDS011;10207;50.942;6.900;2023-08-31T07:05:42;3.50;;;1.30;;
20095;SDS011;10207;50.942;6.900;2023-08-31T07:08:09;5.90;;;1.80;;
20095;SDS011;10207;50.942;6.900;2023-08-31T07:10:35;3.15;;;1.27;;
20095;SDS011;10207;50.942;6.900;2023-08-31T07:13:02;6.90;;;1.25;;
20095;SDS011;10207;50.942;6.900;2023-08-31T07:15:29;3.13;;;1.50;;
20095;SDS011;10207;50.942;6.900;2023-08-31T07:17:55;5.22;;;2.10;;
20095;SDS011;10207;50.942;6.900;2023-08-31T07:20:21;3.40;;;1.15;;
20095;SDS011;10207;50.942;6.900;2023-08-31T07:22:47;5.43;;;1.50;;
20095;SDS011;10207;50.942;6.900;2023-08-31T07:25:12;4.88;;;1.25;;
20095;SDS011;10207;50.942;6.900;2023-08-31T07:27:38;3.63;;;1.17;;
20095;SDS011;10207;50.942;6.900;2023-08-31T07:30:05;4.20;;;1.40;;
20095;SDS011;10207;50.942;6.900;2023-08-31T07:32:31;6.63;;;1.30;;
20095;SDS011;10207;50.942;6.900;2023-08-31T07:34:57;3.90;;;1.02;;
20095;SDS011;10207;50.942;6.900;2023-08-31T07:37:24;5.55;;;1.75;;
20095;SDS011;10207;50.942;6.900;2023-08-31T07:39:50;3.05;;;1.10;;
20095;SDS011;10207;50.942;6.900;2023-08-31T07:42:16;6.35;;;1.67;;
20095;SDS011;10207;50.942;6.900;2023-08-31T07:44:42;8.05;;;1.35;;
20095;SDS011;10207;50.942;6.900;2023-08-31T07:47:09;4.68;;;1.40;;
20095;SDS011;10207;50.942;6.900;2023-08-31T07:49:35;5.70;;;1.30;;
20095;SDS011;10207;50.942;6.900;2023-08-31T07:52:01;3.15;;;1.20;;
20095;SDS011;10207;50.942;6.900;2023-08-31T07:54:28;9.65;;;2.75;;
20095;SDS011;10207;50.942;6.900;2023-08-31T07:56:54;6.50;;;1.20;;
20095;SDS011;10207;50.942;6.900;2023-08-31T07:59:20;5.40;;;1.45;;
20095;SDS011;10207;50.942;6.900;2023-08-31T08:01:47;7.18;;;1.60;;
20095;SDS011;10207;50.942;6.900;2023-08-31T08:04:13;3.95;;;1.20;;
20095;SDS011;10207;50.942;6.900;2023-08-31T08:06:39;1.98;;;1.00;;
20095;SDS011;10207;50.942;6.900;2023-08-31T08:09:05;3.40;;;1.13;;
20095;SDS011;10207;50.942;6.900;2023-08-31T08:11:31;2.70;;;1.42;;
20095;SDS011;10207;50.942;6.900;2023-08-31T08:13:57;4.55;;;1.35;;
20095;SDS011;10207;50.942;6.900;2023-08-31T08:16:23;5.50;;;1.55;;
20095;SDS011;10207;50.942;6.900;2023-08-31T08:18:49;3.03;;;0.90;;
20095;SDS011;10207;50.942;6.900;2023-08-31T08:21:15;3.08;;;1.17;;
20095;SDS011;10207;50.942;6.900;2023-08-31T08:23:41;5.13;;;1.38;;
20095;SDS011;10207;50.942;6.900;2023-08-31T08:26:07;2.95;;;1.35;;
20095;SDS011;10207;50.942;6.900;2023-08-31T08:28:33;4.90;;;1.27;;
20095;SDS011;10207;50.942;6.900;2023-08-31T08:31:02;7.30;;;0.95;;
20095;SDS011;10207;50.942;6.900;2023-08-31T08:33:31;4.72;;;1.30;;
20095;SDS011;10207;50.942;6.900;2023-08-31T08:35:57;7.88;;;1.02;;
20095;SDS011;10207;50.942;6.900;2023-08-31T08:38:23;3.17;;;0.98;;
20095;SDS011;10207;50.942;6.900;2023-08-31T08:40:49;6.22;;;1.35;;
20095;SDS011;10207;50.942;6.900;2023-08-31T08:43:15;5.00;;;1.35;;
20095;SDS011;10207;50.942;6.900;2023-08-31T08:45:44;2.85;;;1.10;;
20095;SDS011;10207;50.942;6.900;2023-08-31T08:48:12;3.58;;;1.40;;
20095;SDS011;10207;50.942;6.900;2023-08-31T08:50:39;8.40;;;1.30;;
20095;SDS011;10207;50.942;6.900;2023-08-31T08:53:06;5.07;;;1.27;;
20095;SDS011;10207;50.942;6.900;2023-08-31T08:55:32;3.63;;;1.00;;
20095;SDS011;10207;50.942;6.900;2023-08-31T08:57:58;2.75;;;1.15;;
20095;SDS011;10207;50.942;6.900;2023-08-31T09:00:29;5.43;;;1.40;;
20095;SDS011;10207;50.942;6.900;2023-08-31T09:02:55;5.00;;;1.08;;
20095;SDS011;10207;50.942;6.900;2023-08-31T09:05:21;4.32;;;1.10;;
20095;SDS011;10207;50.942;6.900;2023-08-31T09:07:59;3.47;;;1.20;;
20095;SDS011;10207;50.942;6.900;2023-08-31T09:10:32;5.95;;;1.13;;
20095;SDS011;10207;50.942;6.900;2023-08-31T09:12:59;3.83;;;1.13;;
20095;SDS011;10207;50.942;6.900;2023-08-31T09:15:25;4.45;;;1.20;;
20095;SDS011;10207;50.942;6.900;2023-08-31T09:17:51;5.35;;;1.80;;
20095;SDS011;10207;50.942;6.900;2023-08-31T09:20:17;2.63;;;1.05;;
20095;SDS011;10207;50.942;6.900;2023-08-31T09:22:43;3.85;;;1.33;;
20095;SDS011;10207;50.942;6.900;2023-08-31T09:25:13;3.35;;;1.00;;
20095;SDS011;10207;50.942;6.900;2023-08-31T09:27:39;6.15;;;1.50;;
20095;SDS011;10207;50.942;6.900;2023-08-31T09:30:06;2.97;;;1.02;;
20095;SDS011;10207;50.942;6.900;2023-08-31T09:32:32;11.38;;;1.55;;
20095;SDS011;10207;50.942;6.900;2023-08-31T09:34:58;6.35;;;1.25;;
20095;SDS011;10207;50.942;6.900;2023-08-31T09:37:28;4.47;;;1.10;;
20095;SDS011;10207;50.942;6.900;2023-08-31T09:39:54;2.90;;;1.30;;
20095;SDS011;10207;50.942;6.900;2023-08-31T09:42:20;4.28;;;1.17;;
20095;SDS011;10207;50.942;6.900;2023-08-31T09:44:47;4.65;;;1.10;;
20095;SDS011;10207;50.942;6.900;2023-08-31T09:47:15;4.75;;;0.95;;
20095;SDS011;10207;50.942;6.900;2023-08-31T09:49:42;4.28;;;1.27;;
20095;SDS011;10207;50.942;6.900;2023-08-31T09:52:09;2.65;;;0.80;;
20095;SDS011;10207;50.942;6.900;2023-08-31T09:54:35;2.55;;;0.98;;
20095;SDS011;10207;50.942;6.900;2023-08-31T09:57:02;5.53;;;1.35;;
20095;SDS011;10207;50.942;6.900;2023-08-31T09:59:28;3.75;;;1.10;;
20095;SDS011;10207;50.942;6.900;2023-08-31T10:01:54;2.00;;;0.90;;
20095;SDS011;10207;50.942;6.900;2023-08-31T10:04:22;7.13;;;1.15;;
20095;SDS011;10207;50.942;6.900;2023-08-31T10:06:48;5.00;;;1.25;;
20095;SDS011;10207;50.942;6.900;2023-08-31T10:09:14;3.22;;;1.00;;
20095;SDS011;10207;50.942;6.900;2023-08-31T10:11:41;4.18;;;1.30;;
20095;SDS011;10207;50.942;6.900;2023-08-31T10:14:08;4.72;;;1.40;;
20095;SDS011;10207;50.942;6.900;2023-08-31T10:16:35;4.75;;;1.00;;
20095;SDS011;10207;50.942;6.900;2023-08-31T10:19:01;5.05;;;1.27;;
20095;SDS011;10207;50.942;6.900;2023-08-31T10:21:28;5.15;;;1.30;;
20095;SDS011;10207;50.942;6.900;2023-08-31T10:23:54;4.25;;;0.93;;
20095;SDS011;10207;50.942;6.900;2023-08-31T10:26:27;3.80;;;0.98;;
20095;SDS011;10207;50.942;6.900;2023-08-31T10:28:53;2.70;;;0.95;;
20095;SDS011;10207;50.942;6.900;2023-08-31T10:31:20;1.98;;;0.80;;
20095;SDS011;10207;50.942;6.900;2023-08-31T10:33:56;5.10;;;0.98;;
20095;SDS011;10207;50.942;6.900;2023-08-31T10:36:34;3.30;;;0.98;;
20095;SDS011;10207;50.942;6.900;2023-08-31T10:39:04;7.13;;;1.17;;
20095;SDS011;10207;50.942;6.900;2023-08-31T10:41:34;3.30;;;1.20;;
20095;SDS011;10207;50.942;6.900;2023-08-31T10:44:00;3.97;;;1.30;;
20095;SDS011;10207;50.942;6.900;2023-08-31T10:46:32;4.47;;;1.02;;
20095;SDS011;10207;50.942;6.900;2023-08-31T10:51:40;5.20;;;1.30;;
20095;SDS011;10207;50.942;6.900;2023-08-31T10:54:52;4.68;;;1.10;;
20095;SDS011;10207;50.942;6.900;2023-08-31T10:59:20;6.15;;;1.55;;
20095;SDS011;10207;50.942;6.900;2023-08-31T11:01:53;5.35;;;1.15;;
20095;SDS011;10207;50.942;6.900;2023-08-31T11:04:26;4.93;;;1.20;;
20095;SDS011;10207;50.942;6.900;2023-08-31T11:09:40;4.53;;;1.30;;
20095;SDS011;10207;50.942;6.900;2023-08-31T11:12:06;2.42;;;1.02;;
20095;SDS011;10207;50.942;6.900;2023-08-31T11:14:33;5.18;;;1.48;;
20095;SDS011;10207;50.942;6.900;2023-08-31T11:16:59;3.80;;;1.27;;
20095;SDS011;10207;50.942;6.900;2023-08-31T11:19:26;5.43;;;1.25;;
20095;SDS011;10207;50.942;6.900;2023-08-31T11:21:53;4.63;;;1.42;;
20095;SDS011;10207;50.942;6.900;2023-08-31T11:24:19;4.70;;;1.30;;
20095;SDS011;10207;50.942;6.900;2023-08-31T11:26:50;5.13;;;1.20;;
20095;SDS011;10207;50.942;6.900;2023-08-31T11:29:16;4.50;;;1.25;;
20095;SDS011;10207;50.942;6.900;2023-08-31T11:31:42;4.97;;;1.40;;
20095;SDS011;10207;50.942;6.900;2023-08-31T11:34:15;9.15;;;1.58;;
20095;SDS011;10207;50.942;6.900;2023-08-31T11:36:42;4.90;;;1.40;;
20095;SDS011;10207;50.942;6.900;2023-08-31T11:39:11;7.22;;;1.65;;
20095;SDS011;10207;50.942;6.900;2023-08-31T11:41:37;3.92;;;1.58;;
20095;SDS011;10207;50.942;6.900;2023-08-31T11:44:07;4.55;;;1.70;;
20095;SDS011;10207;50.942;6.900;2023-08-31T11:46:34;3.95;;;1.55;;
20095;SDS011;10207;50.942;6.900;2023-08-31T11:49:00;4.63;;;1.33;;
20095;SDS011;10207;50.942;6.900;2023-08-31T11:51:26;4.30;;;1.48;;
20095;SDS011;10207;50.942;6.900;2023-08-31T11:53:55;3.97;;;1.30;;
20095;SDS011;10207;50.942;6.900;2023-08-31T11:56:24;5.35;;;1.30;;
20095;SDS011;10207;50.942;6.900;2023-08-31T11:58:52;4.47;;;1.27;;
20095;SDS011;10207;50.942;6.900;2023-08-31T12:01:21;2.65;;;0.93;;
20095;SDS011;10207;50.942;6.900;2023-08-31T12:03:47;2.70;;;1.00;;
20095;SDS011;10207;50.942;6.900;2023-08-31T12:06:16;5.30;;;1.20;;
20095;SDS011;10207;50.942;6.900;2023-08-31T12:08:46;2.33;;;1.00;;
20095;SDS011;10207;50.942;6.900;2023-08-31T12:11:12;4.75;;;1.10;;
20095;SDS011;10207;50.942;6.900;2023-08-31T12:13:39;3.90;;;1.10;;
20095;SDS011;10207;50.942;6.900;2023-08-31T12:16:10;3.88;;;1.05;;
20095;SDS011;10207;50.942;6.900;2023-08-31T12:18:37;2.45;;;1.05;;
20095;SDS011;10207;50.942;6.900;2023-08-31T12:21:03;7.57;;;1.42;;
20095;SDS011;10207;50.942;6.900;2023-08-31T12:23:30;9.80;;;1.83;;
20095;SDS011;10207;50.942;6.900;2023-08-31T12:25:56;5.38;;;1.40;;
20095;SDS011;10207;50.942;6.900;2023-08-31T12:28:22;5.03;;;1.58;;
20095;SDS011;10207;50.942;6.900;2023-08-31T12:30:52;6.00;;;1.40;;
20095;SDS011;10207;50.942;6.900;2023-08-31T12:33:18;6.18;;;1.60;;
20095;SDS011;10207;50.942;6.900;2023-08-31T12:35:44;5.57;;;1.70;;
20095;SDS011;10207;50.942;6.900;2023-08-31T12:38:11;5.75;;;1.20;;
20095;SDS011;10207;50.942;6.900;2023-08-31T12:40:37;4.38;;;1.50;;
20095;SDS011;10207;50.942;6.900;2023-08-31T12:43:06;4.68;;;1.33;;
20095;SDS011;10207;50.942;6.900;2023-08-31T12:45:32;2.42;;;1.13;;
20095;SDS011;10207;50.942;6.900;2023-08-31T12:47:58;4.30;;;1.20;;
20095;SDS011;10207;50.942;6.900;2023-08-31T12:50:24;4.07;;;1.23;;
20095;SDS011;10207;50.942;6.900;2023-08-31T12:52:51;5.15;;;1.27;;
20095;SDS011;10207;50.942;6.900;2023-08-31T12:55:16;7.68;;;1.55;;
20095;SDS011;10207;50.942;6.900;2023-08-31T12:57:43;5.65;;;1.50;;
20095;SDS011;10207;50.942;6.900;2023-08-31T13:00:09;3.35;;;1.10;;
20095;SDS011;10207;50.942;6.900;2023-08-31T13:02:41;3.78;;;1.40;;
20095;SDS011;10207;50.942;6.900;2023-08-31T13:05:07;2.58;;;1.50;;
20095;SDS011;10207;50.942;6.900;2023-08-31T13:07:35;3.33;;;1.20;;
20095;SDS011;10207;50.942;6.900;2023-08-31T13:10:00;2.78;;;0.93;;
20095;SDS011;10207;50.942;6.900;2023-08-31T13:12:32;4.15;;;1.35;;
20095;SDS011;10207;50.942;6.900;2023-08-31T13:14:58;3.28;;;1.42;;
20095;SDS011;10207;50.942;6.900;2023-08-31T13:17:24;5.75;;;1.63;;
20095;SDS011;10207;50.942;6.900;2023-08-31T13:19:52;6.68;;;1.38;;
20095;SDS011;10207;50.942;6.900;2023-08-31T13:22:19;4.35;;;1.50;;
20095;SDS011;10207;50.942;6.900;2023-08-31T13:24:45;3.03;;;1.60;;
20095;SDS011;10207;50.942;6.900;2023-08-31T13:27:11;6.00;;;1.92;;
20095;SDS011;10207;50.942;6.900;2023-08-31T13:29:37;7.57;;;2.00;;
20095;SDS011;10207;50.942;6.900;2023-08-31T13:32:04;3.85;;;1.30;;
20095;SDS011;10207;50.942;6.900;2023-08-31T13:34:30;6.22;;;1.40;;
20095;SDS011;10207;50.942;6.900;2023-08-31T13:36:56;6.32;;;1.80;;
20095;SDS011;10207;50.942;6.900;2023-08-31T13:39:22;4.65;;;1.35;;
20095;SDS011;10207;50.942;6.900;2023-08-31T13:41:50;5.55;;;1.40;;
20095;SDS011;10207;50.942;6.900;2023-08-31T13:44:17;7.50;;;1.65;;
20095;SDS011;10207;50.942;6.900;2023-08-31T13:46:43;7.85;;;1.40;;
20095;SDS011;10207;50.942;6.900;2023-08-31T13:49:09;6.32;;;1.60;;
20095;SDS011;10207;50.942;6.900;2023-08-31T13:51:35;4.25;;;1.27;;
20095;SDS011;10207;50.942;6.900;2023-08-31T13:54:02;5.35;;;1.38;;
20095;SDS011;10207;50.942;6.900;2023-08-31T13:56:29;7.20;;;1.77;;
20095;SDS011;10207;50.942;6.900;2023-08-31T13:58:55;6.65;;;1.35;;
20095;SDS011;10207;50.942;6.900;2023-08-31T14:01:21;4.47;;;1.52;;
20095;SDS011;10207;50.942;6.900;2023-08-31T14:03:48;5.25;;;1.10;;
20095;SDS011;10207;50.942;6.900;2023-08-31T14:06:14;4.60;;;1.50;;
20095;SDS011;10207;50.942;6.900;2023-08-31T14:08:40;4.28;;;1.67;;
20095;SDS011;10207;50.942;6.900;2023-08-31T14:11:06;3.28;;;1.20;;
20095;SDS011;10207;50.942;6.900;2023-08-31T14:13:32;2.83;;;1.20;;
20095;SDS011;10207;50.942;6.900;2023-08-31T14:15:59;5.85;;;1.48;;
20095;SDS011;10207;50.942;6.900;2023-08-31T14:18:28;4.80;;;1.38;;
20095;SDS011;10207;50.942;6.900;2023-08-31T14:20:55;4.95;;;1.23;;
20095;SDS011;10207;50.942;6.900;2023-08-31T14:23:22;3.58;;;1.48;;
20095;SDS011;10207;50.942;6.900;2023-08-31T14:25:48;2.90;;;1.00;;
20095;SDS011;10207;50.942;6.900;2023-08-31T14:28:14;5.78;;;1.25;;
20095;SDS011;10207;50.942;6.900;2023-08-31T14:30:39;3.38;;;1.17;;
20095;SDS011;10207;50.942;6.900;2023-08-31T14:33:05;3.33;;;1.20;;
20095;SDS011;10207;50.942;6.900;2023-08-31T14:35:31;7.03;;;1.20;;
20095;SDS011;10207;50.942;6.900;2023-08-31T14:37:57;1.90;;;0.95;;
20095;SDS011;10207;50.942;6.900;2023-08-31T14:40:24;3.42;;;1.30;;
20095;SDS011;10207;50.942;6.900;2023-08-31T14:42:49;3.45;;;1.35;;
20095;SDS011;10207;50.942;6.900;2023-08-31T14:45:15;3.70;;;1.27;;
20095;SDS011;10207;50.942;6.900;2023-08-31T14:47:41;3.28;;;1.08;;
20095;SDS011;10207;50.942;6.900;2023-08-31T14:50:08;4.00;;;1.13;;
20095;SDS011;10207;50.942;6.900;2023-08-31T14:52:34;3.08;;;1.27;;
20095;SDS011;10207;50.942;6.900;2023-08-31T14:55:01;3.35;;;1.15;;
20095;SDS011;10207;50.942;6.900;2023-08-31T14:57:29;3.13;;;1.10;;
20095;SDS011;10207;50.942;6.900;2023-08-31T14:59:55;3.28;;;1.15;;
20095;SDS011;10207;50.942;6.900;2023-08-31T15:02:24;5.40;;;1.52;;